METAR AND TAF INFORMATION
METAR FOR SBSR
ADDS - METARS form results

(2240 UTC 25 October 2021)
Data provider http://aviationweather.gov/metar/data/
 
METAR text: SBSR 252200Z 21007KT CAVOK 27/16 Q1015
Conditions at: SBSR (SAO JOSE PRETO , BR) observed 2200 UTC 25 October 2021
Temperature: 27.0°C (81°F)
Dewpoint: 16.0°C (61°F) [RH = 51%]
Pressure (altimeter): 29.97 inches Hg (1015.0 mb)
Winds: from the SSW (210 degrees) at 8 MPH (7 knots; 3.6 m/s)
Visibility: 6 or more miles (10+ km)
Ceiling: ceiling and visibility are OK
Clouds: unknown
Weather: no significant weather observed at this time

 AIRPORT MAP

 RUNWAY INFORMATION
Runway 7 Runway length 5381 ft Runway width 115 ft
Runway elevation 0 ft Runway displaced threshold 0 ft Runway heading 0
Runway 25 Runway length 5381 ft Runway width 115 ft
Runway elevation 0 ft Runway displaced threshold 0 ft Runway heading 0

 AIRPORT FREQUENCIES
Type AFIS Name RDO Frequency 130.85 MHZ

 AIRPORT NEAR NAVIGATION AIDS
Type NDB Name Rio Preto Frequency 420 KHZ